Time;durP1;ratioP1;P1;durP2;ratioP2;P2;SDS_P1;SDS_P2;PMS_P1;PMS_P2;Temp;Humidity;BMP_temperature;BMP_pressure;BME280_temperature;BME280_humidity;BME280_pressure;Samples;Min_cycle;Max_cycle;Signal;HPM_P1;HPM_P2
2021/04/24 00:00:27;;;;;;;35.92;16.50;;;;;;;;;;5086832;28;20058;-76
2021/04/24 00:02:54;;;;;;;36.10;16.20;;;;;;;;;;5091521;28;20110;-78
2021/04/24 00:05:31;;;;;;;34.08;15.82;;;;;;;;;;5091961;28;20031;-77
2021/04/24 00:07:59;;;;;;;28.98;14.85;;;;;;;;;;5083625;28;20020;-77
2021/04/24 00:10:25;;;;;;;31.77;15.10;;;;;;;;;;5091043;28;20103;-77
2021/04/24 00:12:51;;;;;;;31.13;14.32;;;;;;;;;;5088765;28;20036;-77
2021/04/24 00:15:17;;;;;;;28.35;14.25;;;;;;;;;;5087774;28;20119;-77
2021/04/24 00:17:44;;;;;;;26.55;13.45;;;;;;;;;;5091319;28;20031;-76
2021/04/24 00:20:11;;;;;;;30.85;14.02;;;;;;;;;;5094975;28;20056;-77
2021/04/24 00:22:37;;;;;;;29.63;15.57;;;;;;;;;;5080073;28;20075;-77
2021/04/24 00:25:04;;;;;;;34.67;15.07;;;;;;;;;;5079216;28;20028;-77
2021/04/24 00:27:30;;;;;;;31.42;15.30;;;;;;;;;;5086445;28;20028;-77
2021/04/24 00:29:56;;;;;;;34.83;16.13;;;;;;;;;;5086803;28;20478;-77
2021/04/24 00:32:22;;;;;;;35.58;14.77;;;;;;;;;;5092889;28;20032;-77
2021/04/24 00:34:48;;;;;;;28.63;15.55;;;;;;;;;;5092833;28;20102;-77
2021/04/24 00:37:14;;;;;;;37.55;16.88;;;;;;;;;;5098696;28;20039;-77
2021/04/24 00:39:40;;;;;;;29.73;15.93;;;;;;;;;;5089461;28;20436;-77
2021/04/24 00:42:06;;;;;;;36.55;16.98;;;;;;;;;;5088672;28;20217;-77
2021/04/24 00:44:32;;;;;;;36.13;16.52;;;;;;;;;;5088739;28;20024;-78
2021/04/24 00:46:58;;;;;;;37.13;16.75;;;;;;;;;;5091866;28;20016;-77
2021/04/24 00:49:24;;;;;;;34.33;16.00;;;;;;;;;;5091832;28;20028;-78
2021/04/24 00:51:51;;;;;;;30.67;14.98;;;;;;;;;;5092038;28;20020;-77
2021/04/24 00:54:17;;;;;;;33.47;16.27;;;;;;;;;;5082791;28;20086;-76
2021/04/24 00:56:43;;;;;;;35.50;16.35;;;;;;;;;;5089371;28;20040;-78
2021/04/24 00:59:09;;;;;;;32.00;16.23;;;;;;;;;;5086494;28;20032;-78
2021/04/24 01:01:35;;;;;;;33.22;15.55;;;;;;;;;;5092546;28;20024;-78
2021/04/24 01:04:01;;;;;;;32.70;17.17;;;;;;;;;;5092191;28;20023;-77
2021/04/24 01:06:28;;;;;;;33.58;16.30;;;;;;;;;;5084371;28;20025;-77
2021/04/24 01:08:54;;;;;;;26.50;14.40;;;;;;;;;;5080953;28;20024;-80
2021/04/24 01:11:20;;;;;;;23.50;12.90;;;;;;;;;;5087040;28;20032;-77
2021/04/24 01:13:46;;;;;;;25.90;12.15;;;;;;;;;;5080949;28;20028;-77
2021/04/24 01:16:12;;;;;;;33.22;12.90;;;;;;;;;;5082198;28;20101;-77
2021/04/24 01:18:38;;;;;;;33.55;13.90;;;;;;;;;;5088806;28;20034;-78
2021/04/24 01:21:05;;;;;;;26.83;12.23;;;;;;;;;;5092617;28;20043;-76
2021/04/24 01:23:32;;;;;;;25.42;11.68;;;;;;;;;;5091397;28;20417;-77
2021/04/24 01:26:00;;;;;;;22.33;11.93;;;;;;;;;;5088731;28;20023;-77
2021/04/24 01:28:26;;;;;;;31.67;12.27;;;;;;;;;;5089897;28;20024;-77
2021/04/24 01:30:52;;;;;;;26.95;11.48;;;;;;;;;;5080030;28;20051;-77
2021/04/24 01:33:18;;;;;;;30.15;11.30;;;;;;;;;;5088302;28;20032;-77
2021/04/24 01:35:45;;;;;;;21.63;9.32;;;;;;;;;;5081414;28;20032;-77
2021/04/24 01:38:12;;;;;;;24.45;10.07;;;;;;;;;;5097964;28;20074;-76
2021/04/24 01:40:38;;;;;;;27.38;10.15;;;;;;;;;;5089344;28;20050;-78
2021/04/24 01:43:06;;;;;;;23.55;8.57;;;;;;;;;;5080249;28;20048;-77
2021/04/24 01:45:32;;;;;;;20.42;9.23;;;;;;;;;;5077960;28;20027;-78
2021/04/24 01:47:59;;;;;;;21.77;7.97;;;;;;;;;;5090875;28;20055;-77
2021/04/24 01:50:31;;;;;;;24.10;8.88;;;;;;;;;;5081330;28;20518;-77
2021/04/24 01:52:58;;;;;;;17.58;7.72;;;;;;;;;;5084448;28;20039;-77
2021/04/24 01:55:25;;;;;;;21.30;7.85;;;;;;;;;;5089603;28;20115;-76
2021/04/24 01:57:52;;;;;;;23.02;9.00;;;;;;;;;;5089003;28;20024;-77
2021/04/24 02:00:28;;;;;;;17.70;7.70;;;;;;;;;;5084038;28;20036;-77
2021/04/24 02:02:54;;;;;;;29.90;8.98;;;;;;;;;;5088717;28;20491;-77
2021/04/24 02:05:21;;;;;;;22.67;7.82;;;;;;;;;;5090990;28;20020;-76
2021/04/24 02:07:54;;;;;;;19.33;8.35;;;;;;;;;;5088891;28;20023;-77
2021/04/24 02:10:20;;;;;;;20.35;9.13;;;;;;;;;;5081606;28;20028;-77
2021/04/24 02:12:46;;;;;;;23.85;7.95;;;;;;;;;;5089561;28;20052;-76
2021/04/24 02:15:12;;;;;;;23.73;7.90;;;;;;;;;;5091239;28;20070;-76
2021/04/24 02:17:38;;;;;;;19.40;8.80;;;;;;;;;;5087277;28;20024;-77
2021/04/24 02:20:04;;;;;;;18.83;8.18;;;;;;;;;;5095428;28;20040;-77
2021/04/24 02:22:30;;;;;;;20.90;7.70;;;;;;;;;;5090212;28;20440;-76
2021/04/24 02:24:58;;;;;;;23.00;8.10;;;;;;;;;;5090351;28;20478;-77
2021/04/24 02:27:24;;;;;;;19.25;8.10;;;;;;;;;;5089422;28;20027;-76
2021/04/24 02:29:51;;;;;;;26.52;9.35;;;;;;;;;;5089101;28;20027;-76
2021/04/24 02:32:17;;;;;;;22.98;9.25;;;;;;;;;;5090594;28;20016;-78
2021/04/24 02:34:45;;;;;;;18.77;7.50;;;;;;;;;;5088420;28;20027;-78
2021/04/24 02:37:12;;;;;;;19.10;8.40;;;;;;;;;;5090154;28;20035;-78
2021/04/24 02:39:39;;;;;;;22.85;8.40;;;;;;;;;;5088001;28;20016;-78
2021/04/24 02:42:07;;;;;;;21.45;8.68;;;;;;;;;;5086029;28;20093;-77
2021/04/24 02:44:33;;;;;;;21.15;8.90;;;;;;;;;;5089525;28;20017;-78
2021/04/24 02:46:59;;;;;;;24.15;9.82;;;;;;;;;;5086985;28;20020;-77
2021/04/24 02:49:25;;;;;;;26.73;8.90;;;;;;;;;;5082286;28;20055;-77
2021/04/24 02:51:52;;;;;;;22.52;7.85;;;;;;;;;;5089143;28;20050;-78
2021/04/24 02:54:19;;;;;;;28.92;9.80;;;;;;;;;;5089845;28;20494;-78
2021/04/24 02:56:45;;;;;;;20.10;8.90;;;;;;;;;;5086869;28;20285;-77
2021/04/24 02:59:11;;;;;;;26.10;9.40;;;;;;;;;;5080771;28;20025;-78
2021/04/24 03:01:37;;;;;;;25.52;10.15;;;;;;;;;;5073162;28;20019;-78
2021/04/24 03:04:03;;;;;;;29.05;10.85;;;;;;;;;;5088117;28;20107;-78
2021/04/24 03:06:29;;;;;;;19.95;7.85;;;;;;;;;;5089882;28;20078;-77
2021/04/24 03:08:55;;;;;;;31.88;10.25;;;;;;;;;;5084467;28;20107;-78
2021/04/24 03:11:21;;;;;;;24.17;9.18;;;;;;;;;;5076687;28;20082;-77
2021/04/24 03:13:47;;;;;;;24.10;10.15;;;;;;;;;;5087916;28;20040;-78
2021/04/24 03:16:13;;;;;;;25.67;9.50;;;;;;;;;;5088709;28;20039;-79
2021/04/24 03:18:40;;;;;;;27.23;10.70;;;;;;;;;;5093665;28;20547;-82
2021/04/24 03:21:06;;;;;;;19.52;8.65;;;;;;;;;;5080929;28;20510;-79
2021/04/24 03:23:32;;;;;;;28.90;10.27;;;;;;;;;;5086252;28;20040;-78
2021/04/24 03:25:58;;;;;;;24.13;9.00;;;;;;;;;;5084981;28;20050;-77
2021/04/24 03:28:24;;;;;;;28.35;9.75;;;;;;;;;;5078282;28;20032;-78
2021/04/24 03:30:50;;;;;;;19.85;9.32;;;;;;;;;;5086773;28;20016;-77
2021/04/24 03:33:16;;;;;;;24.42;10.48;;;;;;;;;;5085815;28;20111;-77
2021/04/24 03:35:42;;;;;;;25.95;9.88;;;;;;;;;;5089765;28;20031;-77
2021/04/24 03:38:08;;;;;;;27.65;9.25;;;;;;;;;;5092056;28;20077;-80
2021/04/24 03:40:34;;;;;;;25.75;9.00;;;;;;;;;;5089744;28;20405;-78
2021/04/24 03:43:00;;;;;;;23.77;10.15;;;;;;;;;;5088491;28;20016;-78
2021/04/24 03:45:26;;;;;;;26.45;9.38;;;;;;;;;;5091230;28;20032;-77
2021/04/24 03:47:54;;;;;;;26.02;10.60;;;;;;;;;;5087433;28;20497;-78
2021/04/24 03:50:21;;;;;;;26.77;10.00;;;;;;;;;;5093011;28;20024;-79
2021/04/24 03:52:47;;;;;;;29.05;10.85;;;;;;;;;;5093042;28;20024;-78
2021/04/24 03:55:14;;;;;;;25.67;10.10;;;;;;;;;;5089955;28;20027;-78
2021/04/24 03:57:40;;;;;;;31.05;11.18;;;;;;;;;;5089535;28;20035;-78
2021/04/24 04:00:07;;;;;;;26.25;10.48;;;;;;;;;;5088554;28;20060;-77
2021/04/24 04:02:48;;;;;;;30.25;10.10;;;;;;;;;;5084591;28;20032;-79
2021/04/24 04:05:15;;;;;;;28.98;12.75;;;;;;;;;;5091292;28;20047;-78
2021/04/24 04:07:41;;;;;;;26.30;12.30;;;;;;;;;;5093268;28;20389;-79
2021/04/24 04:10:08;;;;;;;27.88;11.27;;;;;;;;;;5086815;28;20027;-78
2021/04/24 04:12:34;;;;;;;28.20;10.93;;;;;;;;;;5089156;28;20024;-79
2021/04/24 04:15:00;;;;;;;27.90;11.88;;;;;;;;;;5086377;28;20036;-78
2021/04/24 04:17:26;;;;;;;30.23;11.55;;;;;;;;;;5085057;28;20596;-79
2021/04/24 04:19:52;;;;;;;28.48;11.68;;;;;;;;;;5092892;28;20047;-78
2021/04/24 04:22:18;;;;;;;30.85;11.77;;;;;;;;;;5090361;28;20028;-78
2021/04/24 04:24:45;;;;;;;29.08;11.57;;;;;;;;;;5092523;28;20044;-78
2021/04/24 04:27:11;;;;;;;32.22;11.63;;;;;;;;;;5091989;28;20115;-78
2021/04/24 04:29:37;;;;;;;29.67;12.90;;;;;;;;;;5084161;28;20047;-79
2021/04/24 04:32:03;;;;;;;30.17;12.15;;;;;;;;;;5092949;28;20027;-76
2021/04/24 04:34:29;;;;;;;32.80;13.15;;;;;;;;;;5090389;28;20028;-78
2021/04/24 04:36:55;;;;;;;30.38;13.40;;;;;;;;;;5093017;28;20032;-79
2021/04/24 04:39:21;;;;;;;34.63;12.10;;;;;;;;;;5084318;28;20025;-78
2021/04/24 04:41:47;;;;;;;32.22;11.80;;;;;;;;;;5085624;28;20073;-79
2021/04/24 04:44:13;;;;;;;35.85;12.40;;;;;;;;;;5088774;28;20043;-78
2021/04/24 04:46:39;;;;;;;30.38;11.68;;;;;;;;;;5090862;28;20402;-80
2021/04/24 04:49:06;;;;;;;31.63;12.23;;;;;;;;;;5088052;28;20107;-79
2021/04/24 04:51:32;;;;;;;32.28;11.88;;;;;;;;;;5080822;28;20027;-78
2021/04/24 04:53:59;;;;;;;31.75;11.88;;;;;;;;;;5085921;28;20024;-79
2021/04/24 04:56:25;;;;;;;32.05;12.75;;;;;;;;;;5083060;28;20044;-79
2021/04/24 04:58:51;;;;;;;35.53;12.40;;;;;;;;;;5090741;28;20032;-82
2021/04/24 05:01:18;;;;;;;32.90;12.35;;;;;;;;;;5093049;28;20084;-79
2021/04/24 05:03:44;;;;;;;32.53;11.52;;;;;;;;;;5088733;28;20024;-78
2021/04/24 05:06:10;;;;;;;30.90;11.55;;;;;;;;;;5092485;28;20081;-78
2021/04/24 05:08:36;;;;;;;31.30;12.93;;;;;;;;;;5086033;28;20111;-83
2021/04/24 05:11:03;;;;;;;34.72;14.18;;;;;;;;;;5081450;28;20029;-80
2021/04/24 05:13:29;;;;;;;38.50;14.73;;;;;;;;;;5083279;28;20108;-79
2021/04/24 05:15:55;;;;;;;44.85;14.75;;;;;;;;;;5088239;28;20504;-79
2021/04/24 05:18:22;;;;;;;44.70;14.60;;;;;;;;;;5083892;28;20028;-80
2021/04/24 05:20:48;;;;;;;36.78;15.65;;;;;;;;;;5098511;28;20048;-80
2021/04/24 05:23:14;;;;;;;41.35;14.55;;;;;;;;;;5091916;28;20028;-78
2021/04/24 05:25:40;;;;;;;38.70;15.07;;;;;;;;;;5090428;28;20031;-80
2021/04/24 05:28:06;;;;;;;38.65;14.13;;;;;;;;;;5089109;28;20024;-79
2021/04/24 05:30:32;;;;;;;46.95;16.10;;;;;;;;;;5090583;28;20027;-79
2021/04/24 05:32:58;;;;;;;36.45;15.68;;;;;;;;;;5086815;28;20028;-78
2021/04/24 05:35:25;;;;;;;37.85;15.45;;;;;;;;;;5076742;28;20037;-80
2021/04/24 05:37:51;;;;;;;39.67;16.23;;;;;;;;;;5100424;28;20119;-80
2021/04/24 05:40:18;;;;;;;34.63;15.40;;;;;;;;;;5089877;28;20450;-78
2021/04/24 05:42:44;;;;;;;36.92;14.35;;;;;;;;;;5084606;28;20027;-79
2021/04/24 05:45:13;;;;;;;40.03;14.05;;;;;;;;;;5087254;28;20473;-79
2021/04/24 05:47:45;;;;;;;35.00;14.43;;;;;;;;;;5090626;28;20505;-81
2021/04/24 05:50:12;;;;;;;37.88;14.10;;;;;;;;;;5086717;28;20023;-78
2021/04/24 05:52:39;;;;;;;36.22;14.02;;;;;;;;;;5088350;28;20024;-79
2021/04/24 05:55:06;;;;;;;37.50;14.85;;;;;;;;;;5086262;28;20063;-82
2021/04/24 05:57:32;;;;;;;27.85;11.88;;;;;;;;;;5088188;28;20036;-81
2021/04/24 05:59:58;;;;;;;24.67;11.77;;;;;;;;;;5084947;28;20032;-79
2021/04/24 06:02:24;;;;;;;30.48;12.60;;;;;;;;;;5089711;28;20028;-79
2021/04/24 06:04:50;;;;;;;28.67;13.20;;;;;;;;;;5089192;28;20028;-83
2021/04/24 06:07:16;;;;;;;30.83;13.10;;;;;;;;;;5089661;28;20024;-83
2021/04/24 06:09:42;;;;;;;30.58;11.85;;;;;;;;;;5086756;28;20111;-81
2021/04/24 06:12:09;;;;;;;29.42;11.45;;;;;;;;;;5090675;28;20024;-76
2021/04/24 06:14:35;;;;;;;27.83;14.05;;;;;;;;;;5086667;28;20039;-80
2021/04/24 06:17:02;;;;;;;25.08;11.45;;;;;;;;;;5089008;28;20432;-79
2021/04/24 06:19:28;;;;;;;29.00;13.65;;;;;;;;;;5087630;28;20028;-81
2021/04/24 06:21:54;;;;;;;25.98;12.18;;;;;;;;;;5087456;28;20046;-80
2021/04/24 06:24:20;;;;;;;24.95;11.68;;;;;;;;;;5087913;28;20024;-79
2021/04/24 06:26:47;;;;;;;30.25;13.55;;;;;;;;;;5087806;28;20058;-79
2021/04/24 06:29:13;;;;;;;31.05;11.23;;;;;;;;;;5086558;28;20495;-84
2021/04/24 06:31:39;;;;;;;28.13;13.85;;;;;;;;;;5089522;28;20120;-80
2021/04/24 06:34:05;;;;;;;27.90;13.48;;;;;;;;;;5086628;28;20479;-77
2021/04/24 06:36:31;;;;;;;26.48;12.55;;;;;;;;;;5089959;28;20513;-81
2021/04/24 06:38:58;;;;;;;29.63;13.30;;;;;;;;;;5086662;28;20486;-74
2021/04/24 06:41:25;;;;;;;26.10;12.90;;;;;;;;;;5074375;28;20035;-82
2021/04/24 06:43:51;;;;;;;29.27;12.18;;;;;;;;;;5085224;28;20035;-83
2021/04/24 06:46:17;;;;;;;30.30;13.52;;;;;;;;;;5089242;28;20031;-81
2021/04/24 06:48:43;;;;;;;28.20;10.82;;;;;;;;;;5087454;28;20024;-79
2021/04/24 06:51:09;;;;;;;28.30;11.35;;;;;;;;;;5086622;28;20545;-81
2021/04/24 06:53:36;;;;;;;25.35;12.15;;;;;;;;;;5083005;28;20039;-81
2021/04/24 06:56:02;;;;;;;27.08;12.63;;;;;;;;;;5087947;28;20063;-80
2021/04/24 06:58:28;;;;;;;25.73;13.55;;;;;;;;;;5088340;28;20028;-78
2021/04/24 07:00:55;;;;;;;27.13;12.93;;;;;;;;;;5087782;28;20456;-80
2021/04/24 07:03:21;;;;;;;28.52;12.38;;;;;;;;;;5087430;28;20035;-80
2021/04/24 07:05:47;;;;;;;21.10;10.73;;;;;;;;;;5090001;28;20081;-81
2021/04/24 07:08:13;;;;;;;22.48;11.20;;;;;;;;;;5086541;28;20027;-79
2021/04/24 07:10:39;;;;;;;23.40;10.57;;;;;;;;;;5081699;28;20081;-82
2021/04/24 07:13:05;;;;;;;27.30;10.13;;;;;;;;;;5088589;28;20036;-79
2021/04/24 07:15:32;;;;;;;22.30;9.43;;;;;;;;;;5087851;28;20032;-83
2021/04/24 07:17:58;;;;;;;21.25;9.43;;;;;;;;;;5086865;28;20035;-72
2021/04/24 07:20:24;;;;;;;23.50;10.45;;;;;;;;;;5086015;28;20044;-79
2021/04/24 07:22:50;;;;;;;20.00;9.25;;;;;;;;;;5088529;28;20399;-78
2021/04/24 07:25:16;;;;;;;18.13;8.48;;;;;;;;;;5089143;28;20092;-82
2021/04/24 07:27:42;;;;;;;23.30;10.02;;;;;;;;;;5085372;28;20028;-81
2021/04/24 07:30:10;;;;;;;18.88;9.45;;;;;;;;;;5082969;28;20020;-81
2021/04/24 07:32:36;;;;;;;23.42;10.75;;;;;;;;;;5083802;28;20028;-80
2021/04/24 07:35:03;;;;;;;20.90;10.80;;;;;;;;;;5087671;28;20028;-79
2021/04/24 07:37:29;;;;;;;22.52;10.25;;;;;;;;;;5089633;28;20054;-74
2021/04/24 07:39:55;;;;;;;20.13;8.43;;;;;;;;;;5087414;28;20142;-84
2021/04/24 07:42:22;;;;;;;21.80;10.05;;;;;;;;;;5085909;28;20024;-79
2021/04/24 07:44:48;;;;;;;23.92;10.63;;;;;;;;;;5086329;28;20093;-80
2021/04/24 07:47:14;;;;;;;20.02;9.25;;;;;;;;;;5083608;28;20071;-81
2021/04/24 07:49:40;;;;;;;22.92;10.27;;;;;;;;;;5078243;28;20051;-81
2021/04/24 07:52:08;;;;;;;22.42;8.75;;;;;;;;;;5083386;28;20375;-78
2021/04/24 07:54:34;;;;;;;20.92;9.45;;;;;;;;;;5078566;28;20486;-76
2021/04/24 07:57:00;;;;;;;21.38;10.05;;;;;;;;;;5084867;28;20028;-78
2021/04/24 07:59:27;;;;;;;19.00;9.20;;;;;;;;;;5083743;28;20032;-78
2021/04/24 08:01:53;;;;;;;22.90;10.02;;;;;;;;;;5086889;28;20024;-81
2021/04/24 08:04:19;;;;;;;25.00;9.80;;;;;;;;;;5086019;28;20085;-77
2021/04/24 08:06:45;;;;;;;16.67;8.30;;;;;;;;;;5086869;28;20028;-82
2021/04/24 08:09:11;;;;;;;18.08;7.32;;;;;;;;;;5083635;28;20113;-79
2021/04/24 08:11:38;;;;;;;17.90;8.13;;;;;;;;;;5084798;28;20065;-80
2021/04/24 08:14:04;;;;;;;22.98;7.85;;;;;;;;;;5083426;28;20038;-79
2021/04/24 08:16:31;;;;;;;18.45;7.65;;;;;;;;;;5086238;28;20082;-80
2021/04/24 08:18:57;;;;;;;15.05;6.43;;;;;;;;;;5079457;28;20194;-77
2021/04/24 08:21:23;;;;;;;15.85;6.90;;;;;;;;;;5089973;28;20044;-78
2021/04/24 08:23:51;;;;;;;18.30;7.85;;;;;;;;;;5082920;28;20055;-79
2021/04/24 08:26:18;;;;;;;15.00;7.95;;;;;;;;;;5084239;28;20020;-76
2021/04/24 08:28:44;;;;;;;18.58;8.23;;;;;;;;;;5089527;28;20069;-77
2021/04/24 08:31:10;;;;;;;14.70;7.93;;;;;;;;;;5087314;28;20032;-77
2021/04/24 08:33:36;;;;;;;17.48;8.27;;;;;;;;;;5087301;28;20797;-77
2021/04/24 08:36:03;;;;;;;18.67;8.85;;;;;;;;;;5085482;28;20024;-78
2021/04/24 08:38:29;;;;;;;17.35;7.53;;;;;;;;;;5088045;28;20028;-77
2021/04/24 08:40:55;;;;;;;16.77;7.75;;;;;;;;;;5085976;28;20027;-78
2021/04/24 08:43:21;;;;;;;15.85;7.55;;;;;;;;;;5090143;28;20078;-76
2021/04/24 08:45:48;;;;;;;17.23;8.52;;;;;;;;;;5089367;28;20024;-77
2021/04/24 08:48:14;;;;;;;16.25;7.72;;;;;;;;;;5090681;28;20043;-79
2021/04/24 08:50:40;;;;;;;16.75;7.28;;;;;;;;;;5089423;28;20047;-76
2021/04/24 08:53:06;;;;;;;15.65;8.52;;;;;;;;;;5078775;28;20047;-77
2021/04/24 08:55:36;;;;;;;17.33;8.13;;;;;;;;;;5083827;28;20067;-77
2021/04/24 08:58:04;;;;;;;20.05;9.35;;;;;;;;;;5085217;28;20024;-75
2021/04/24 09:00:33;;;;;;;15.32;6.95;;;;;;;;;;5078749;28;20083;-76
2021/04/24 09:02:59;;;;;;;12.90;7.20;;;;;;;;;;5083077;28;20050;-76
2021/04/24 09:05:26;;;;;;;16.08;8.55;;;;;;;;;;5082558;28;20470;-78
2021/04/24 09:08:00;;;;;;;15.20;6.45;;;;;;;;;;5082127;28;20058;-77
2021/04/24 09:10:26;;;;;;;17.30;8.70;;;;;;;;;;5076578;28;20015;-76
2021/04/24 09:12:52;;;;;;;19.27;9.85;;;;;;;;;;5081087;28;20024;-81
2021/04/24 09:15:20;;;;;;;18.00;8.93;;;;;;;;;;5083338;28;20031;-75
2021/04/24 09:17:49;;;;;;;20.92;10.20;;;;;;;;;;5083267;28;20036;-80
2021/04/24 09:20:15;;;;;;;17.63;9.10;;;;;;;;;;5069322;28;20101;-79
2021/04/24 09:22:41;;;;;;;22.65;10.65;;;;;;;;;;5069937;28;20037;-77
2021/04/24 09:25:07;;;;;;;20.02;11.48;;;;;;;;;;5071397;28;20023;-79
2021/04/24 09:27:47;;;;;;;17.48;10.38;;;;;;;;;;5081119;28;20057;-75
2021/04/24 09:30:20;;;;;;;22.42;10.50;;;;;;;;;;5082412;28;20040;-79
2021/04/24 09:32:47;;;;;;;24.02;10.15;;;;;;;;;;5082350;28;20545;-75
2021/04/24 09:35:21;;;;;;;18.30;9.38;;;;;;;;;;5078321;28;20478;-80
2021/04/24 09:38:00;;;;;;;15.50;8.57;;;;;;;;;;5080484;28;20055;-78
2021/04/24 09:40:26;;;;;;;19.02;9.40;;;;;;;;;;5076086;28;20020;-80
2021/04/24 09:43:04;;;;;;;19.75;10.77;;;;;;;;;;5082017;28;20050;-77
2021/04/24 09:45:35;;;;;;;19.05;10.90;;;;;;;;;;5089138;28;20115;-75
2021/04/24 09:48:02;;;;;;;22.58;10.27;;;;;;;;;;5090248;28;20055;-69
2021/04/24 09:50:37;;;;;;;19.25;10.18;;;;;;;;;;5088737;28;20024;-76
2021/04/24 09:53:13;;;;;;;16.38;9.93;;;;;;;;;;5090838;28;20110;-76
2021/04/24 09:55:40;;;;;;;21.20;8.15;;;;;;;;;;5083852;28;20058;-68
2021/04/24 09:58:08;;;;;;;23.95;11.48;;;;;;;;;;5088875;28;20517;-76
2021/04/24 10:00:35;;;;;;;24.65;11.25;;;;;;;;;;5089878;28;20024;-76
2021/04/24 10:03:01;;;;;;;17.00;9.85;;;;;;;;;;5086255;28;20297;-73
2021/04/24 10:05:27;;;;;;;26.83;9.40;;;;;;;;;;5097807;28;20032;-79
2021/04/24 10:07:53;;;;;;;17.27;8.88;;;;;;;;;;5095905;28;20609;-74
2021/04/24 10:10:25;;;;;;;20.50;9.20;;;;;;;;;;5080084;28;20028;-74
2021/04/24 10:12:59;;;;;;;15.98;9.30;;;;;;;;;;5085207;28;20052;-76
2021/04/24 10:15:34;;;;;;;16.70;8.82;;;;;;;;;;5081338;28;20120;-78
2021/04/24 10:18:01;;;;;;;21.48;8.52;;;;;;;;;;5085050;28;20077;-77
2021/04/24 10:20:27;;;;;;;16.65;8.30;;;;;;;;;;5079739;28;20521;-73
2021/04/24 10:22:55;;;;;;;19.30;8.23;;;;;;;;;;5082140;28;20028;-76
2021/04/24 10:25:21;;;;;;;14.85;8.27;;;;;;;;;;5083935;28;20020;-76
2021/04/24 10:27:48;;;;;;;17.58;9.80;;;;;;;;;;5088172;28;20043;-79
2021/04/24 10:30:14;;;;;;;20.40;9.48;;;;;;;;;;5085237;28;20047;-77
2021/04/24 10:32:42;;;;;;;16.75;8.55;;;;;;;;;;5086973;28;20016;-76
2021/04/24 10:35:10;;;;;;;19.63;10.27;;;;;;;;;;5082012;28;20012;-76
2021/04/24 10:37:36;;;;;;;16.02;8.48;;;;;;;;;;5095074;28;20020;-77
2021/04/24 10:40:03;;;;;;;21.40;9.73;;;;;;;;;;5086622;28;20399;-77
2021/04/24 10:42:30;;;;;;;16.92;9.02;;;;;;;;;;5088700;28;20082;-74
2021/04/24 10:45:00;;;;;;;28.80;13.85;;;;;;;;;;5088578;28;20111;-81
2021/04/24 10:47:41;;;;;;;28.90;14.63;;;;;;;;;;5090078;28;20115;-76
2021/04/24 10:50:09;;;;;;;32.20;14.30;;;;;;;;;;5078512;28;20117;-76
2021/04/24 10:52:35;;;;;;;28.23;12.57;;;;;;;;;;5088579;28;20020;-76
2021/04/24 10:55:13;;;;;;;26.33;12.77;;;;;;;;;;5090026;28;20020;-76
2021/04/24 10:57:39;;;;;;;25.48;11.63;;;;;;;;;;5085832;28;20024;-76
2021/04/24 11:00:17;;;;;;;26.13;9.82;;;;;;;;;;5087327;28;20548;-79
2021/04/24 11:02:48;;;;;;;19.20;9.52;;;;;;;;;;5087852;28;20023;-75
2021/04/24 11:05:26;;;;;;;23.77;9.77;;;;;;;;;;5087176;28;20036;-73
2021/04/24 11:08:10;;;;;;;19.80;7.97;;;;;;;;;;5088708;28;20555;-74
2021/04/24 11:10:43;;;;;;;19.63;8.63;;;;;;;;;;5085810;28;20020;-75
2021/04/24 11:13:10;;;;;;;21.08;9.57;;;;;;;;;;5089907;28;20386;-76
2021/04/24 11:15:36;;;;;;;21.30;10.70;;;;;;;;;;5087865;28;20020;-73
2021/04/24 11:18:04;;;;;;;19.70;9.75;;;;;;;;;;5086753;28;20028;-77
2021/04/24 11:20:45;;;;;;;24.80;10.93;;;;;;;;;;5087122;28;20410;-78
2021/04/24 11:23:30;;;;;;;23.88;10.82;;;;;;;;;;5088023;28;20036;-75
2021/04/24 11:26:04;;;;;;;23.70;10.02;;;;;;;;;;5087718;28;20028;-74
2021/04/24 11:28:30;;;;;;;23.85;9.38;;;;;;;;;;5088982;28;20024;-73
2021/04/24 11:30:59;;;;;;;24.33;9.15;;;;;;;;;;5085045;28;20091;-74
2021/04/24 11:33:42;;;;;;;26.35;10.32;;;;;;;;;;5086232;28;20562;-72
2021/04/24 11:36:26;;;;;;;26.90;10.40;;;;;;;;;;5088744;28;20103;-81
2021/04/24 11:39:03;;;;;;;23.20;9.93;;;;;;;;;;5084989;28;20020;-76
2021/04/24 11:41:45;;;;;;;21.80;10.05;;;;;;;;;;5085464;28;20024;-68
2021/04/24 11:44:11;;;;;;;;;;;;;;;;;;5087013;28;20024;-76
2021/04/24 11:46:38;;;;;;;28.25;10.02;;;;;;;;;;5088515;28;19908;-77
2021/04/24 11:49:10;;;;;;;23.58;11.00;;;;;;;;;;5081847;28;20542;-77
2021/04/24 11:51:37;;;;;;;23.75;10.93;;;;;;;;;;5089078;28;20410;-75
2021/04/24 11:54:14;;;;;;;24.65;10.40;;;;;;;;;;5088544;28;20035;-76
2021/04/24 11:56:44;;;;;;;26.58;12.43;;;;;;;;;;5084423;28;20055;-72
2021/04/24 11:59:10;;;;;;;27.77;12.63;;;;;;;;;;5089912;28;20020;-79
2021/04/24 12:01:37;;;;;;;27.45;13.15;;;;;;;;;;5090873;28;20065;-78
2021/04/24 12:04:03;;;;;;;26.20;11.48;;;;;;;;;;5090862;28;20502;-76
2021/04/24 12:06:36;;;;;;;28.40;10.63;;;;;;;;;;5092543;28;20016;-73
2021/04/24 12:09:07;;;;;;;22.98;10.85;;;;;;;;;;5088948;28;20545;-73
2021/04/24 12:11:33;;;;;;;27.00;12.18;;;;;;;;;;5090721;28;20026;-73
2021/04/24 12:13:59;;;;;;;25.38;11.13;;;;;;;;;;5092458;28;20060;-77
2021/04/24 12:16:41;;;;;;;27.70;11.30;;;;;;;;;;5091213;28;20032;-72
2021/04/24 12:19:26;;;;;;;25.58;9.90;;;;;;;;;;5087357;28;20055;-74
2021/04/24 12:22:06;;;;;;;22.15;10.15;;;;;;;;;;5089887;28;20059;-73
2021/04/24 12:24:33;;;;;;;22.48;9.30;;;;;;;;;;5090650;28;20068;-74
2021/04/24 12:26:59;;;;;;;24.27;8.70;;;;;;;;;;5092524;28;20032;-76
2021/04/24 12:29:44;;;;;;;20.88;10.35;;;;;;;;;;5087397;28;20050;-69
2021/04/24 12:32:11;;;;;;;18.60;7.80;;;;;;;;;;5086204;28;20024;-74
2021/04/24 12:34:37;;;;;;;23.83;9.10;;;;;;;;;;5091340;28;20028;-74
2021/04/24 12:37:03;;;;;;;19.95;8.60;;;;;;;;;;5096730;28;20024;-71
2021/04/24 12:39:29;;;;;;;22.95;8.70;;;;;;;;;;5087017;28;20047;-74
2021/04/24 12:41:56;;;;;;;20.20;9.05;;;;;;;;;;5091895;28;20036;-75
2021/04/24 12:44:26;;;;;;;17.67;7.47;;;;;;;;;;5091042;28;20089;-72
2021/04/24 12:46:52;;;;;;;19.42;7.57;;;;;;;;;;5092092;28;20020;-74
2021/04/24 12:49:18;;;;;;;17.10;8.10;;;;;;;;;;5090335;28;20077;-73
2021/04/24 12:52:05;;;;;;;19.70;7.70;;;;;;;;;;5089331;28;20132;-73
2021/04/24 12:54:31;;;;;;;13.10;7.28;;;;;;;;;;5091804;28;20028;-72
2021/04/24 12:57:18;;;;;;;16.65;7.30;;;;;;;;;;5090817;28;20032;-71
2021/04/24 12:59:47;;;;;;;16.70;6.72;;;;;;;;;;5088208;28;20545;-74
2021/04/24 13:02:13;;;;;;;14.43;6.32;;;;;;;;;;5092706;28;20173;-72
2021/04/24 13:04:59;;;;;;;17.00;6.00;;;;;;;;;;5089373;28;20020;-71
2021/04/24 13:07:25;;;;;;;15.80;6.38;;;;;;;;;;5084531;28;20028;-74
2021/04/24 13:09:51;;;;;;;14.57;7.18;;;;;;;;;;5078876;28;20508;-72
2021/04/24 13:12:17;;;;;;;22.50;8.40;;;;;;;;;;5089066;28;20024;-72
2021/04/24 13:14:47;;;;;;;17.17;7.00;;;;;;;;;;5086947;28;20065;-74
2021/04/24 13:17:17;;;;;;;21.85;6.93;;;;;;;;;;5089608;28;20036;-75
2021/04/24 13:19:48;;;;;;;17.98;7.70;;;;;;;;;;5077778;28;20047;-78
2021/04/24 13:22:29;;;;;;;15.90;7.55;;;;;;;;;;5085285;28;20035;-75
2021/04/24 13:24:55;;;;;;;16.13;7.22;;;;;;;;;;5080661;28;20036;-74
2021/04/24 13:27:25;;;;;;;21.77;7.60;;;;;;;;;;5090253;28;20073;-72
2021/04/24 13:29:51;;;;;;;16.42;6.75;;;;;;;;;;5079692;28;20652;-73
2021/04/24 13:32:18;;;;;;;16.92;6.78;;;;;;;;;;5077465;28;20025;-73
2021/04/24 13:34:49;;;;;;;18.23;6.45;;;;;;;;;;5078555;28;20172;-73
2021/04/24 13:37:22;;;;;;;14.88;7.15;;;;;;;;;;5084114;28;20077;-73
2021/04/24 13:39:56;;;;;;;16.77;7.45;;;;;;;;;;5075903;28;20040;-73
2021/04/24 13:42:43;;;;;;;19.13;8.10;;;;;;;;;;5076875;28;21375;-73
2021/04/24 13:45:13;;;;;;;23.52;8.07;;;;;;;;;;5081004;28;20059;-73
2021/04/24 13:47:40;;;;;;;18.95;8.65;;;;;;;;;;5077854;28;20097;-72
2021/04/24 13:50:06;;;;;;;24.83;8.90;;;;;;;;;;5077586;28;20024;-75
2021/04/24 13:52:32;;;;;;;16.42;8.00;;;;;;;;;;5081815;28;20031;-71
2021/04/24 13:54:58;;;;;;;20.67;8.85;;;;;;;;;;5079706;28;20103;-72
2021/04/24 13:57:24;;;;;;;21.30;9.18;;;;;;;;;;5083159;28;20127;-72
2021/04/24 13:59:50;;;;;;;18.60;7.18;;;;;;;;;;5083801;28;20085;-74
2021/04/24 14:02:17;;;;;;;20.40;7.28;;;;;;;;;;5084709;28;20016;-71
2021/04/24 14:04:43;;;;;;;17.25;7.25;;;;;;;;;;5076832;28;20035;-71
2021/04/24 14:07:09;;;;;;;20.92;7.40;;;;;;;;;;5085133;28;20063;-72
2021/04/24 14:09:35;;;;;;;19.02;8.35;;;;;;;;;;5080695;28;20034;-75
2021/04/24 14:12:01;;;;;;;18.63;8.00;;;;;;;;;;5084354;28;20027;-72
2021/04/24 14:14:27;;;;;;;17.95;7.97;;;;;;;;;;5079494;28;20024;-72
2021/04/24 14:16:54;;;;;;;17.23;6.97;;;;;;;;;;5073196;28;20494;-72
2021/04/24 14:19:20;;;;;;;17.05;7.28;;;;;;;;;;5079131;28;20016;-71
2021/04/24 14:21:52;;;;;;;17.33;7.00;;;;;;;;;;5079905;28;20113;-71
2021/04/24 14:24:19;;;;;;;19.00;5.85;;;;;;;;;;5083398;28;20032;-71
2021/04/24 14:26:48;;;;;;;20.30;6.60;;;;;;;;;;5069437;28;20328;-71